createdAt,value
2023-02-27T00:00:20.910Z,96629.06
2023-02-27T00:02:51.434Z,96633.06
2023-02-27T00:05:20.122Z,96631.03
2023-02-27T00:07:47.585Z,96637.00
2023-02-27T00:10:16.129Z,96634.94
2023-02-27T00:12:45.630Z,96637.53
2023-02-27T00:15:16.530Z,96632.53
2023-02-27T00:17:44.691Z,96634.69
2023-02-27T00:20:14.949Z,96633.94
2023-02-27T00:22:43.299Z,96633.31
2023-02-27T00:25:11.749Z,96636.53
2023-02-27T00:27:39.268Z,96632.75
2023-02-27T00:30:12.372Z,96627.53
2023-02-27T00:32:40.526Z,96626.88
2023-02-27T00:35:11.333Z,96633.97
2023-02-27T00:37:39.692Z,96634.38
2023-02-27T00:40:09.043Z,96628.31
2023-02-27T00:42:36.807Z,96634.81
2023-02-27T00:45:05.710Z,96632.94
2023-02-27T00:47:35.391Z,96636.66
2023-02-27T00:50:02.972Z,96631.09
2023-02-27T00:52:30.522Z,96638.56
2023-02-27T00:54:58.026Z,96640.72
2023-02-27T00:57:25.512Z,96646.97
2023-02-27T00:59:53.031Z,96644.44
2023-02-27T01:02:20.623Z,96643.28
2023-02-27T01:04:49.455Z,96639.47
2023-02-27T01:07:16.944Z,96650.84
2023-02-27T01:09:44.642Z,96639.78
2023-02-27T01:12:12.203Z,96643.91
2023-02-27T01:14:39.767Z,96643.28
2023-02-27T01:17:07.398Z,96650.53
2023-02-27T01:19:34.861Z,96639.53
2023-02-27T01:22:03.841Z,96637.56
2023-02-27T01:24:31.632Z,96638.91
2023-02-27T01:26:59.176Z,96639.75
2023-02-27T01:29:26.948Z,96650.63
2023-02-27T01:31:54.589Z,96637.75
2023-02-27T01:34:22.228Z,96640.47
2023-02-27T01:36:49.739Z,96638.31
2023-02-27T01:39:18.673Z,96647.41
2023-02-27T01:41:46.139Z,96648.50
2023-02-27T01:44:14.946Z,96642.38
2023-02-27T01:46:42.931Z,96643.91
2023-02-27T01:49:16.094Z,96650.97
2023-02-27T01:51:47.786Z,96651.09
2023-02-27T01:54:20.349Z,96643.59
2023-02-27T01:56:48.485Z,96648.91
2023-02-27T01:59:17.385Z,96639.94
2023-02-27T02:01:45.526Z,96644.22
2023-02-27T02:04:19.481Z,96644.09
2023-02-27T02:06:51.470Z,96637.88
2023-02-27T02:09:22.508Z,96637.50
2023-02-27T02:11:50.136Z,96648.03
2023-02-27T02:14:17.660Z,96654.31
2023-02-27T02:17:06.524Z,96652.47
2023-02-27T02:20:16.170Z,96660.59
2023-02-27T02:23:07.408Z,96658.63
2023-02-27T02:26:11.450Z,96667.19
2023-02-27T02:29:17.553Z,96666.19
2023-02-27T02:32:13.274Z,96663.72
2023-02-27T02:35:22.828Z,96669.16
2023-02-27T02:38:29.617Z,96663.41
2023-02-27T02:41:06.328Z,96671.47
2023-02-27T02:43:42.576Z,96675.72
2023-02-27T02:46:15.438Z,96671.97
2023-02-27T02:48:48.392Z,96669.31
2023-02-27T02:51:21.347Z,96675.19
2023-02-27T02:53:56.841Z,96668.25
2023-02-27T02:56:29.149Z,96677.72
2023-02-27T02:59:02.223Z,96670.13
2023-02-27T03:01:37.050Z,96666.09
2023-02-27T03:04:09.301Z,96675.66
2023-02-27T03:06:41.601Z,96677.88
2023-02-27T03:09:17.245Z,96676.94
2023-02-27T03:11:48.519Z,96677.25
2023-02-27T03:14:22.489Z,96679.50
2023-02-27T03:16:54.392Z,96681.78
2023-02-27T03:19:25.832Z,96683.28
2023-02-27T03:21:59.737Z,96676.16
2023-02-27T03:24:33.460Z,96683.19
2023-02-27T03:27:03.321Z,96677.53
2023-02-27T03:29:38.258Z,96685.97
2023-02-27T03:32:12.196Z,96681.13
2023-02-27T03:34:42.614Z,96677.41
2023-02-27T03:37:21.951Z,96684.13
2023-02-27T03:39:55.160Z,96681.97
2023-02-27T03:42:30.796Z,96679.97
2023-02-27T03:45:05.350Z,96677.91
2023-02-27T03:47:34.256Z,96673.22
2023-02-27T03:50:01.760Z,96679.78
2023-02-27T03:52:30.536Z,96674.59
2023-02-27T03:55:04.424Z,96683.34
2023-02-27T03:57:32.926Z,96682.25
2023-02-27T04:00:00.645Z,96676.59
2023-02-27T04:02:29.028Z,96681.75
2023-02-27T04:04:56.649Z,96679.88
2023-02-27T04:07:34.710Z,96684.84
2023-02-27T04:10:27.844Z,96689.97
2023-02-27T04:13:32.599Z,96684.88
2023-02-27T04:16:19.033Z,96682.75
2023-02-27T04:18:59.805Z,96683.97
2023-02-27T04:21:35.826Z,96684.22
2023-02-27T04:24:13.404Z,96694.69
2023-02-27T04:26:47.561Z,96697.38
2023-02-27T04:29:18.459Z,96692.47
2023-02-27T04:31:55.325Z,96689.84
2023-02-27T04:34:30.792Z,96697.88
2023-02-27T04:37:02.839Z,96690.94
2023-02-27T04:39:34.182Z,96688.34
2023-02-27T04:42:06.671Z,96688.66
2023-02-27T04:44:37.095Z,96691.63
2023-02-27T04:47:08.212Z,96689.09
2023-02-27T04:49:39.241Z,96696.69
2023-02-27T04:52:13.784Z,96706.19
2023-02-27T04:54:46.069Z,96702.91
2023-02-27T04:57:21.721Z,96706.25
2023-02-27T04:59:53.437Z,96704.91
2023-02-27T05:02:25.293Z,96711.13
2023-02-27T05:04:57.776Z,96712.31
2023-02-27T05:07:30.438Z,96715.44
2023-02-27T05:10:02.663Z,96714.59
2023-02-27T05:12:36.215Z,96707.16
2023-02-27T05:15:09.985Z,96712.28
2023-02-27T05:17:41.980Z,96708.38
2023-02-27T05:20:13.001Z,96714.31
2023-02-27T05:22:47.947Z,96710.47
2023-02-27T05:25:24.830Z,96701.50
2023-02-27T05:27:58.937Z,96712.31
2023-02-27T05:30:34.984Z,96713.19
2023-02-27T05:33:07.658Z,96710.16
2023-02-27T05:35:39.505Z,96711.16
2023-02-27T05:38:12.998Z,96709.59
2023-02-27T05:40:45.260Z,96716.53
2023-02-27T05:43:19.547Z,96716.34
2023-02-27T05:45:51.447Z,96713.88
2023-02-27T05:48:25.496Z,96719.84
2023-02-27T05:50:54.217Z,96722.22
2023-02-27T05:53:25.600Z,96721.44
2023-02-27T05:55:55.288Z,96727.41
2023-02-27T05:58:27.698Z,96725.03
2023-02-27T06:00:59.088Z,96731.56
2023-02-27T06:03:28.264Z,96725.31
2023-02-27T06:05:58.124Z,96729.13
2023-02-27T06:08:26.383Z,96726.66
2023-02-27T06:10:55.189Z,96727.50
2023-02-27T06:13:25.932Z,96735.56
2023-02-27T06:15:54.004Z,96736.25
2023-02-27T06:18:21.748Z,96730.50
2023-02-27T06:20:49.884Z,96732.31
2023-02-27T06:23:17.589Z,96730.00
2023-02-27T06:25:45.313Z,96737.50
2023-02-27T06:28:13.014Z,96746.63
2023-02-27T06:30:42.007Z,96746.06
2023-02-27T06:33:09.671Z,96747.91
2023-02-27T06:35:37.157Z,96745.03
2023-02-27T06:38:05.144Z,96750.41
2023-02-27T06:40:32.584Z,96748.19
2023-02-27T06:43:00.048Z,96739.50
2023-02-27T06:45:27.538Z,96745.94
2023-02-27T06:47:56.316Z,96730.19
2023-02-27T06:50:23.880Z,96749.78
2023-02-27T06:52:51.335Z,96755.25
2023-02-27T06:55:20.773Z,96749.78
2023-02-27T06:57:48.541Z,96748.31
2023-02-27T07:00:17.971Z,96759.66
2023-02-27T07:02:45.807Z,96763.88
2023-02-27T07:05:14.618Z,96762.41
2023-02-27T07:07:42.120Z,96761.88
2023-02-27T07:10:12.662Z,96767.38
2023-02-27T07:12:40.496Z,96767.97
2023-02-27T07:15:09.037Z,96771.88
2023-02-27T07:17:37.774Z,96775.25
2023-02-27T07:20:06.512Z,96775.47
2023-02-27T07:22:35.700Z,96776.19
2023-02-27T07:25:03.232Z,96781.47
2023-02-27T07:27:30.810Z,96781.69
2023-02-27T07:29:58.318Z,96783.22
2023-02-27T07:32:25.859Z,96784.31
2023-02-27T07:34:53.454Z,96778.13
2023-02-27T07:37:21.128Z,96778.38
2023-02-27T07:39:50.536Z,96777.97
2023-02-27T07:42:18.091Z,96777.72
2023-02-27T07:44:45.563Z,96781.13
2023-02-27T07:47:13.034Z,96782.88
2023-02-27T07:49:40.497Z,96773.66
2023-02-27T07:52:08.304Z,96769.63
2023-02-27T07:54:37.462Z,96770.16
2023-02-27T07:57:06.650Z,96772.84
2023-02-27T07:59:34.112Z,96771.75
2023-02-27T08:02:01.645Z,96776.38
2023-02-27T08:04:29.147Z,96781.88
2023-02-27T08:06:57.304Z,96782.38
2023-02-27T08:09:24.770Z,96779.94
2023-02-27T08:11:52.232Z,96793.44
2023-02-27T08:14:21.064Z,96788.59
2023-02-27T08:16:48.544Z,96788.69
2023-02-27T08:19:16.151Z,96789.75
2023-02-27T08:21:43.790Z,96792.09
2023-02-27T08:24:11.653Z,96789.97
2023-02-27T08:26:39.238Z,96797.00
2023-02-27T08:29:06.889Z,96803.03
2023-02-27T08:31:36.183Z,96802.94
2023-02-27T08:34:10.127Z,96800.09
2023-02-27T08:36:38.794Z,96791.88
2023-02-27T08:39:06.692Z,96787.69
2023-02-27T08:41:34.305Z,96804.59
2023-02-27T08:44:01.789Z,96807.53
2023-02-27T08:46:29.731Z,96802.50
2023-02-27T08:48:58.748Z,96807.31
2023-02-27T08:51:26.631Z,96803.97
2023-02-27T08:53:55.877Z,96797.47
2023-02-27T08:56:23.350Z,96790.28
2023-02-27T08:58:50.836Z,96802.06
2023-02-27T09:01:18.763Z,96809.38
2023-02-27T09:03:46.271Z,96808.25
2023-02-27T09:06:15.090Z,96808.56
2023-02-27T09:08:42.548Z,96809.81
2023-02-27T09:11:10.010Z,96810.41
2023-02-27T09:13:37.476Z,96809.63
2023-02-27T09:16:05.341Z,96813.72
2023-02-27T09:18:32.812Z,96817.03
2023-02-27T09:21:01.042Z,96820.19
2023-02-27T09:23:29.890Z,96814.91
2023-02-27T09:25:57.385Z,96823.88
2023-02-27T09:28:24.840Z,96831.88
2023-02-27T09:30:52.319Z,96834.84
2023-02-27T09:33:19.843Z,96840.56
2023-02-27T09:35:47.331Z,96831.44
2023-02-27T09:38:14.794Z,96839.44
2023-02-27T09:40:45.605Z,96838.19
2023-02-27T09:43:17.946Z,96840.06
2023-02-27T09:45:47.946Z,96840.56
2023-02-27T09:48:26.867Z,96841.19
2023-02-27T09:50:54.596Z,96840.31
2023-02-27T09:53:27.312Z,96834.19
2023-02-27T09:56:01.217Z,96843.75
2023-02-27T09:58:42.481Z,96854.03
2023-02-27T10:01:16.876Z,96856.50
2023-02-27T10:04:02.953Z,96853.59
2023-02-27T10:06:37.374Z,96854.22
2023-02-27T10:09:17.253Z,96852.72
2023-02-27T10:11:57.339Z,96846.91
2023-02-27T10:14:33.440Z,96854.72
2023-02-27T10:17:06.551Z,96853.75
2023-02-27T10:19:38.079Z,96872.03
2023-02-27T10:22:11.036Z,96865.84
2023-02-27T10:24:43.601Z,96871.47
2023-02-27T10:27:19.383Z,96867.56
2023-02-27T10:29:47.076Z,96868.22
2023-02-27T10:32:18.485Z,96872.41
2023-02-27T10:34:49.939Z,96876.22
2023-02-27T10:37:21.811Z,96871.41
2023-02-27T10:39:52.695Z,96877.78
2023-02-27T10:42:23.369Z,96873.59
2023-02-27T10:44:53.534Z,96874.72
2023-02-27T10:47:23.674Z,96877.88
2023-02-27T10:49:52.030Z,96878.13
2023-02-27T10:52:20.027Z,96880.75
2023-02-27T10:54:48.403Z,96864.41
2023-02-27T10:57:30.307Z,96884.31
2023-02-27T11:00:00.232Z,96863.94
2023-02-27T11:02:33.746Z,96860.06
2023-02-27T11:05:01.532Z,96865.25
2023-02-27T11:07:33.201Z,96862.69
2023-02-27T11:10:03.668Z,96869.72
2023-02-27T11:12:35.282Z,96867.34
2023-02-27T11:15:21.716Z,96870.00
2023-02-27T11:17:49.222Z,96872.91
2023-02-27T11:20:35.379Z,96853.53
2023-02-27T11:23:05.748Z,96843.97
2023-02-27T11:25:33.951Z,96858.03
2023-02-27T11:28:21.078Z,96855.91
2023-02-27T11:30:58.876Z,96868.59
2023-02-27T11:33:27.357Z,96861.28
2023-02-27T11:35:58.507Z,96854.66
2023-02-27T11:38:29.721Z,96856.94
2023-02-27T11:40:59.222Z,96845.78
2023-02-27T11:43:31.012Z,96845.91
2023-02-27T11:46:16.247Z,96839.44
2023-02-27T11:48:51.547Z,96840.69
2023-02-27T11:51:30.782Z,96852.72
2023-02-27T11:54:15.606Z,96848.66
2023-02-27T11:56:46.950Z,96851.88
2023-02-27T11:59:26.601Z,96853.41
2023-02-27T12:02:00.316Z,96853.13
2023-02-27T12:04:35.912Z,96849.53
2023-02-27T12:07:11.614Z,96841.22
2023-02-27T12:09:45.202Z,96856.94
2023-02-27T12:12:21.512Z,96846.28
2023-02-27T12:14:58.508Z,96841.25
2023-02-27T12:17:30.402Z,96845.72
2023-02-27T12:20:32.871Z,96840.44
2023-02-27T12:23:04.234Z,96843.28
2023-02-27T12:25:39.170Z,96826.28
2023-02-27T12:28:20.050Z,96849.47
2023-02-27T12:31:01.675Z,96840.47
2023-02-27T12:33:37.291Z,96845.28
2023-02-27T12:36:06.158Z,96835.25
2023-02-27T12:38:35.960Z,96822.69
2023-02-27T12:41:27.594Z,96831.03
2023-02-27T12:44:07.998Z,96823.00
2023-02-27T12:46:47.842Z,96823.84
2023-02-27T12:49:36.868Z,96815.69
2023-02-27T12:52:19.833Z,96815.38
2023-02-27T12:55:02.617Z,96814.31
2023-02-27T12:57:56.648Z,96831.09
2023-02-27T13:00:30.038Z,96816.94
2023-02-27T13:03:05.659Z,96823.13
2023-02-27T13:05:40.478Z,96819.94
2023-02-27T13:08:25.912Z,96814.31
2023-02-27T13:11:01.856Z,96822.28
2023-02-27T13:13:37.139Z,96823.69
2023-02-27T13:16:08.079Z,96825.09
2023-02-27T13:18:45.365Z,96813.13
2023-02-27T13:21:16.641Z,96805.59
2023-02-27T13:23:58.255Z,96805.31
2023-02-27T13:26:29.952Z,96802.84
2023-02-27T13:28:59.022Z,96802.88
2023-02-27T13:31:37.097Z,96809.38
2023-02-27T13:34:15.570Z,96811.81
2023-02-27T13:36:46.256Z,96815.84
2023-02-27T13:39:52.520Z,96817.91
2023-02-27T13:42:53.937Z,96820.41
2023-02-27T13:45:48.394Z,96801.75
2023-02-27T13:48:41.959Z,96816.22
2023-02-27T13:51:27.298Z,96811.94
2023-02-27T13:54:09.819Z,96808.72
2023-02-27T13:56:37.758Z,96817.84
2023-02-27T13:59:12.981Z,96827.13
2023-02-27T14:01:40.972Z,96821.97
2023-02-27T14:04:08.873Z,96819.56
2023-02-27T14:06:45.678Z,96818.19
2023-02-27T14:09:18.060Z,96827.81
2023-02-27T14:11:54.939Z,96809.13
2023-02-27T14:14:45.960Z,96818.28
2023-02-27T14:17:15.527Z,96821.53
2023-02-27T14:19:57.002Z,96815.72
2023-02-27T14:22:37.178Z,96820.84
2023-02-27T14:25:16.939Z,96828.13
2023-02-27T14:27:52.570Z,96815.81
2023-02-27T14:30:44.281Z,96822.78
2023-02-27T14:33:33.430Z,96825.69
2023-02-27T14:36:10.645Z,96825.16
2023-02-27T14:38:39.667Z,96830.50
2023-02-27T14:41:16.793Z,96825.09
2023-02-27T14:43:45.900Z,96818.97
2023-02-27T14:46:22.888Z,96835.41
2023-02-27T14:48:54.688Z,96818.94
2023-02-27T14:51:22.654Z,96822.81
2023-02-27T14:54:02.962Z,96821.84
2023-02-27T14:56:30.565Z,96825.56
2023-02-27T14:59:04.286Z,96822.97
2023-02-27T15:01:36.763Z,96824.50
2023-02-27T15:04:07.852Z,96829.06
2023-02-27T15:06:42.776Z,96815.66
2023-02-27T15:09:22.604Z,96817.06
2023-02-27T15:12:02.648Z,96823.72
2023-02-27T15:14:34.274Z,96832.25
2023-02-27T15:17:02.285Z,96832.25
2023-02-27T15:19:31.254Z,96841.25
2023-02-27T15:22:00.389Z,96832.13
2023-02-27T15:24:35.287Z,96843.09
2023-02-27T15:27:16.515Z,96835.72
2023-02-27T15:29:46.376Z,96840.44
2023-02-27T15:32:18.656Z,96842.72
2023-02-27T15:34:47.610Z,96838.34
2023-02-27T15:37:22.007Z,96838.47
2023-02-27T15:39:53.538Z,96830.59
2023-02-27T15:42:25.212Z,96840.94
2023-02-27T15:44:53.370Z,96842.13
2023-02-27T15:47:24.934Z,96840.47
2023-02-27T15:49:57.105Z,96840.03
2023-02-27T15:52:26.478Z,96848.09
2023-02-27T15:55:02.268Z,96845.66
2023-02-27T15:57:30.623Z,96859.72
2023-02-27T15:59:59.467Z,96849.88
2023-02-27T16:02:29.861Z,96854.00
2023-02-27T16:04:58.030Z,96854.44
2023-02-27T16:07:28.479Z,96860.56
2023-02-27T16:10:03.948Z,96867.63
2023-02-27T16:12:34.022Z,96872.25
2023-02-27T16:15:22.852Z,96870.00
2023-02-27T16:17:55.526Z,96879.78
2023-02-27T16:20:32.505Z,96870.34
2023-02-27T16:23:03.585Z,96879.19
2023-02-27T16:25:32.860Z,96872.53
2023-02-27T16:28:00.580Z,96885.91
2023-02-27T16:30:28.620Z,96884.56
2023-02-27T16:33:01.824Z,96888.19
2023-02-27T16:35:30.269Z,96882.78
2023-02-27T16:38:01.813Z,96883.09
2023-02-27T16:40:30.049Z,96882.94
2023-02-27T16:42:59.109Z,96890.81
2023-02-27T16:45:28.657Z,96892.00
2023-02-27T16:47:58.230Z,96887.03
2023-02-27T16:50:30.800Z,96902.53
2023-02-27T16:52:58.518Z,96907.31
2023-02-27T16:55:26.902Z,96910.31
2023-02-27T16:57:54.651Z,96908.09
2023-02-27T17:00:23.666Z,96914.63
2023-02-27T17:02:51.626Z,96914.00
2023-02-27T17:05:19.941Z,96926.25
2023-02-27T17:07:48.626Z,96917.88
2023-02-27T17:10:18.736Z,96919.84
2023-02-27T17:12:46.907Z,96927.28
2023-02-27T17:15:14.887Z,96924.69
2023-02-27T17:17:44.506Z,96926.59
2023-02-27T17:20:13.985Z,96935.56
2023-02-27T17:22:43.803Z,96937.78
2023-02-27T17:25:13.260Z,96936.25
2023-02-27T17:27:42.782Z,96939.47
2023-02-27T17:30:11.494Z,96943.78
2023-02-27T17:32:40.082Z,96941.47
2023-02-27T17:35:09.880Z,96948.19
2023-02-27T17:37:37.482Z,96949.44
2023-02-27T17:40:05.560Z,96952.34
2023-02-27T17:42:33.143Z,96948.19
2023-02-27T17:45:01.202Z,96954.94
2023-02-27T17:47:28.705Z,96962.84
2023-02-27T17:49:56.163Z,96957.69
2023-02-27T17:52:24.995Z,96958.81
2023-02-27T17:54:52.519Z,96963.34
2023-02-27T17:57:20.743Z,96963.03
2023-02-27T17:59:48.202Z,96968.84
2023-02-27T18:02:16.114Z,96968.53
2023-02-27T18:04:43.652Z,96972.59
2023-02-27T18:07:11.107Z,96973.59
2023-02-27T18:09:39.924Z,96978.34
2023-02-27T18:12:07.442Z,96975.28
2023-02-27T18:14:35.919Z,96976.31
2023-02-27T18:17:03.446Z,96981.69
2023-02-27T18:19:32.560Z,96977.03
2023-02-27T18:22:00.540Z,96973.06
2023-02-27T18:24:28.005Z,96971.56
2023-02-27T18:26:56.798Z,96979.38
2023-02-27T18:29:24.238Z,96977.56
2023-02-27T18:31:53.935Z,96981.78
2023-02-27T18:34:21.498Z,96979.09
2023-02-27T18:36:49.082Z,96988.13
2023-02-27T18:39:16.565Z,96987.00
2023-02-27T18:41:44.576Z,96993.81
2023-02-27T18:44:13.371Z,96988.97
2023-02-27T18:46:40.851Z,96999.09
2023-02-27T18:49:09.030Z,96993.75
2023-02-27T18:51:37.152Z,96997.13
2023-02-27T18:54:06.822Z,96997.00
2023-02-27T18:56:34.351Z,96992.63
2023-02-27T18:59:05.107Z,97009.00
2023-02-27T19:01:36.621Z,97001.91
2023-02-27T19:04:06.269Z,96998.75
2023-02-27T19:06:35.171Z,97001.84
2023-02-27T19:09:04.951Z,97001.06
2023-02-27T19:11:33.899Z,97004.38
2023-02-27T19:14:01.877Z,97006.00
2023-02-27T19:16:30.116Z,97003.97
2023-02-27T19:19:01.473Z,97003.47
2023-02-27T19:21:29.807Z,97007.56
2023-02-27T19:23:57.743Z,97014.84
2023-02-27T19:26:25.835Z,97011.59
2023-02-27T19:28:54.568Z,97007.81
2023-02-27T19:31:24.384Z,97012.72
2023-02-27T19:33:52.761Z,97014.75
2023-02-27T19:36:23.062Z,97014.97
2023-02-27T19:38:50.988Z,97012.59
2023-02-27T19:41:19.318Z,97019.03
2023-02-27T19:43:47.927Z,97007.59
2023-02-27T19:46:17.385Z,97021.75
2023-02-27T19:48:45.358Z,97014.25
2023-02-27T19:51:14.885Z,97007.75
2023-02-27T19:53:45.358Z,97014.09
2023-02-27T19:56:15.098Z,97019.38
2023-02-27T19:58:42.597Z,97010.53
2023-02-27T20:01:10.761Z,97014.16
2023-02-27T20:03:41.858Z,97015.75
2023-02-27T20:06:16.702Z,97019.19
2023-02-27T20:08:45.586Z,97016.69
2023-02-27T20:11:15.570Z,97013.44
2023-02-27T20:13:43.046Z,97019.09
2023-02-27T20:16:13.703Z,97019.38
2023-02-27T20:18:42.526Z,97021.63
2023-02-27T20:21:13.035Z,97014.75
2023-02-27T20:23:42.327Z,97018.63
2023-02-27T20:26:19.771Z,97015.47
2023-02-27T20:28:48.523Z,97016.78
2023-02-27T20:31:18.775Z,97012.22
2023-02-27T20:33:46.369Z,97009.38
2023-02-27T20:36:14.692Z,97003.19
2023-02-27T20:38:42.572Z,97010.72
2023-02-27T20:41:12.231Z,97010.97
2023-02-27T20:43:43.233Z,97005.09
2023-02-27T20:46:12.560Z,97006.84
2023-02-27T20:48:40.801Z,97002.63
2023-02-27T20:51:10.861Z,97011.13
2023-02-27T20:53:40.589Z,97003.56
2023-02-27T20:56:09.221Z,96999.41
2023-02-27T20:58:37.442Z,96999.31
2023-02-27T21:01:10.992Z,97013.34
2023-02-27T21:03:39.828Z,97002.47
2023-02-27T21:06:08.634Z,96997.44
2023-02-27T21:08:37.087Z,96997.16
2023-02-27T21:11:08.985Z,96996.69
2023-02-27T21:13:37.165Z,97001.91
2023-02-27T21:16:05.414Z,97000.81
2023-02-27T21:18:34.758Z,96993.31
2023-02-27T21:21:03.817Z,96992.34
2023-02-27T21:23:31.302Z,96991.38
2023-02-27T21:25:58.984Z,96994.00
2023-02-27T21:28:26.958Z,96989.13
2023-02-27T21:30:54.937Z,96991.50
2023-02-27T21:33:23.009Z,96985.69
2023-02-27T21:35:51.840Z,96978.97
2023-02-27T21:38:19.320Z,96978.16
2023-02-27T21:40:46.763Z,96976.00
2023-02-27T21:43:14.219Z,96971.75
2023-02-27T21:45:47.305Z,96965.22
2023-02-27T21:48:16.046Z,96967.44
2023-02-27T21:50:43.595Z,96967.88
2023-02-27T21:53:12.430Z,96969.06
2023-02-27T21:55:39.894Z,96975.66
2023-02-27T21:58:10.073Z,96963.91
2023-02-27T22:00:37.598Z,96964.13
2023-02-27T22:03:05.168Z,96960.75
2023-02-27T22:05:32.734Z,96962.31
2023-02-27T22:08:00.259Z,96965.47
2023-02-27T22:10:29.106Z,96965.94
2023-02-27T22:12:56.525Z,96957.88
2023-02-27T22:15:23.997Z,96955.66
2023-02-27T22:17:54.541Z,96965.09
2023-02-27T22:20:22.054Z,96958.72
2023-02-27T22:22:49.545Z,96967.34
2023-02-27T22:25:17.131Z,96968.50
2023-02-27T22:27:45.940Z,96967.47
2023-02-27T22:30:14.510Z,96963.13
2023-02-27T22:32:42.016Z,96964.72
2023-02-27T22:35:09.855Z,96965.28
2023-02-27T22:37:37.334Z,96968.41
2023-02-27T22:40:05.470Z,96963.81
2023-02-27T22:42:33.157Z,96967.84
2023-02-27T22:45:02.032Z,96969.44
2023-02-27T22:47:29.676Z,96965.41
2023-02-27T22:49:57.155Z,96962.41
2023-02-27T22:52:24.616Z,96963.00
2023-02-27T22:54:52.934Z,96960.91
2023-02-27T22:57:20.419Z,96963.59
2023-02-27T22:59:50.713Z,96953.97
2023-02-27T23:02:19.527Z,96957.34
2023-02-27T23:04:46.975Z,96965.00
2023-02-27T23:07:14.454Z,96961.84
2023-02-27T23:09:42.013Z,96953.19
2023-02-27T23:12:09.466Z,96951.75
2023-02-27T23:14:36.927Z,96950.94
2023-02-27T23:17:04.412Z,96953.84
2023-02-27T23:19:34.030Z,96959.25
2023-02-27T23:22:01.469Z,96952.75
2023-02-27T23:24:28.947Z,96946.22
2023-02-27T23:26:56.457Z,96947.19
2023-02-27T23:29:23.922Z,96948.81
2023-02-27T23:31:51.515Z,96945.69
2023-02-27T23:34:19.080Z,96951.72
2023-02-27T23:36:48.000Z,96943.63
2023-02-27T23:39:15.520Z,96947.19
2023-02-27T23:41:43.053Z,96943.09
2023-02-27T23:44:10.548Z,96946.72
2023-02-27T23:46:38.876Z,96946.66
2023-02-27T23:49:06.406Z,96946.19
2023-02-27T23:51:34.251Z,96944.13
2023-02-27T23:54:03.457Z,96946.16
2023-02-27T23:56:31.484Z,96935.44
2023-02-27T23:59:00.959Z,96937.25
